WEATHER DATA

TODAY
Time Temp. Dewp. Hum. Wind dir Wind speed Wind gust Bar. 1h Prec. 24h Prec.
00:07 4.8 4.8 100 252 1.4 4.7 991.5 0.2020 0.1000
00:18 4.8 4.8 100 228 1.1 5.3 991.7 0.3030 0.2000
00:28 4.8 4.8 100 229 1.1 3.3 991.9 0.3030 0.2000
00:38 4.9 4.9 100 18 1.1 3.3 992.3 0.2020 0.2000
00:48 4.9 4.9 100 259 1.4 6.7 992.6 0.3030 0.3000
00:59 4.9 4.9 100 355 1.4 4.4 992.8 0.2020 0.3000
01:08 5 5 100 322 1.9 4.2 993.1 0.3030 0.4000
01:18 5 5 100 349 2.5 4.4 993.4 0.2020 0.4000
01:29 5.1 5.1 100 333 2.2 5.3 994 0.3030 0.5000
01:39 5.1 5.1 100 343 1.9 4.4 994.1 0.3030 0.6000
01:48 5.1 5.1 100 334 2.2 5.3 994.4 0.4040 0.7000
01:59 5.2 5.2 100 345 1.9 3.9 994.7 0.4040 0.7000
02:09 5.2 5.2 100 350 2.2 5.3 995.1 0.4040 0.8000
02:19 5.2 5.2 100 351 1.9 4.2 995.4 0.4040 0.8000
02:29 5.3 5.3 100 344 1.1 2.2 995.6 0.2020 0.8000
02:39 5.4 5.4 100 354 0.8 3.1 995.7 0.2020 0.8000
02:49 5.6 5.6 100 3 1.1 2.8 996 0.1010 0.8000
02:59 5.7 5.7 100 124 0.6 2.2 996.1 0.0000 0.8000
03:09 5.7 5.7 100 12 0.8 3.1 996.2 0.0000 0.8000
03:19 5.7 5.7 100 198 0.6 2.8 996.1 0.0000 0.8000
03:29 5.7 5.7 100 206 0.8 2.8 995.9 0.0000 0.8000
03:39 5.5 5.5 100 152 0.6 1.7 995.8 0.0000 0.8000
03:49 5.3 5.3 100 137 0.6 1.9 996.1 0.0000 0.8000
03:59 5.2 5.2 100 161 0.6 1.4 996.2 0.0000 0.8000
04:09 5.1 5.1 100 175 0.6 1.9 996.2 0.0000 0.8000
04:20 5.1 5.1 100 143 0.6 1.1 996.5 0.0000 0.8000
04:30 4.8 4.8 100 225 0.3 0.6 996.6 0.0000 0.8000
04:40 4.5 4.5 100 219 0.3 1.1 996.6 0.0000 0.8000
04:49 4.1 4.1 100 229 0.6 1.9 996.1 0.0000 0.8000
05:00 3.8 3.8 100 232 0.3 1.1 996.6 0.0000 0.8000
05:10 3.4 3.4 100 149 0.3 1.1 997.6 0.0000 0.8000
05:20 3.2 3.2 100 225 0.3 1.1 997.8 0.0000 0.8000
05:34 2.9 2.9 100 233 0.3 0.8 998.4 0.0000 0.8000
05:43 2.8 2.8 100 153 0.3 0.8 998.5 0.0000 0.8000
05:54 2.6 2.6 100 198 0.3 1.1 998.8 0.0000 0.8000
06:04 2.5 2.5 100 233 0.3 1.1 999 0.0000 0.8000
06:14 2.5 2.5 100 143 0.3 0.8 999.3 0.0000 0.8000
06:23 2.3 2.3 100 225 0.3 0.8 999.4 0.0000 0.8000
06:34 2.2 2.2 100 225 0.3 0.8 999.4 0.0000 0.8000
06:44 2 2 100 195 0.3 1.1 999.6 0.0000 0.8000
06:54 1.9 1.9 100 169 0.3 1.4 999.9 0.0000 0.8000
07:04 1.7 1.7 100 215 0.3 0.8 999.9 0.0000 0.8000
07:14 1.6 1.6 100 140 0.3 0.8 1000.2 0.0000 0.8000
07:24 1.4 1.4 100 270 0.3 0.8 1000.6 0.0000 0.8000
07:34 1.3 1.3 100 270 0.3 0.6 1000.7 0.0000 0.8000
07:44 1.2 1.2 100 270 0.3 0.6 1000.9 0.0000 0.8000
07:54 1.1 1.1 100 315 0.3 0.8 1000.8 0.0000 0.8000
08:04 1 1 100 90 0.3 0.8 1000.9 0.0000 0.8000
08:15 1 1 100 270 0.3 1.1 1001.2 0.0000 0.8000
08:24 1 1 100 315 0.3 0.6 1001.4 0.0000 0.8000
08:34 0.9 0.9 100 270 0.3 0.6 1001.4 0.0000 0.8000
08:44 1 1 100 270 0.3 0.8 1001.7 0.0000 0.8000
08:55 1.1 1.1 100 315 0.3 0.8 1001.4 0.0000 0.8000
09:04 1.3 1.3 100 270 0.3 0.8 1001.7 0.0000 0.8000
09:14 1.8 1.8 100 288 0.6 1.4 1001.9 0.0000 0.8000
09:25 2.2 2.2 100 315 0.3 0.6 1002 0.0000 0.8000
09:35 2.6 2.6 100 90 0.3 0.8 1002 0.0000 0.8000
09:44 3.1 3.1 100 125 0.3 1.1 1002.1 0.0000 0.8000
09:55 3.7 3.7 100 201 0.6 2.8 1002.4 0.0000 0.8000
10:05 4.4 4.4 100 200 0.6 1.7 1002.4 0.0000 0.8000
10:15 5.1 5.1 100 226 1.1 3.1 1002.6 0.0000 0.8000
10:24 5.6 5.6 100 231 0.8 2.8 1002.6 0.0000 0.8000
10:35 6.1 6.1 100 216 0.8 2.2 1002.7 0.0000 0.8000
10:45 6.5 6.5 100 231 0.6 2.5 1002.8 0.0000 0.8000
10:54 6.8 6.8 100 200 0.6 1.7 1002.7 0.0000 0.8000
11:05 7.2 7.2 100 218 0.6 2.5 1002.9 0.0000 0.8000
11:15 7.6 7.6 100 225 0.6 1.9 1002.8 0.0000 0.8000
11:25 7.9 7.9 100 234 0.6 1.9 1002.8 0.0000 0.8000
11:35 8.2 8.2 100 183 0.6 2.2 1002.9 0.0000 0.8000
11:45 8.6 8.6 100 214 0.8 3.3 1002.9 0.0000 0.8000
11:55 9 9 100 236 1.4 4.2 1003.1 0.0000 0.8000
12:05 9.2 8.9 98 236 1.1 3.6 1003 0.0000 0.8000
12:15 9.5 8.9 96 208 1.1 3.9 1003.2 0.0000 0.8000
12:25 9.8 9 95 171 0.8 2.2 1003.2 0.0000 0.8000
12:35 10 8.9 93 157 0.6 2.2 1003.3 0.0000 0.8000
12:45 10.2 8.8 91 196 0.8 2.5 1003.3 0.0000 0.8000
12:55 10.4 8.8 90 180 1.1 2.2 1003.3 0.0000 0.8000
13:05 10.5 8.8 89 180 0.8 2.2 1003.3 0.0000 0.8000
13:15 10.6 8.9 89 175 1.1 3.3 1003.5 0.0000 0.8000
13:26 10.8 9.2 90 201 0.8 2.2 1003.4 0.0000 0.8000
13:35 11 9.4 90 200 1.1 4.2 1003.4 0.0000 0.8000
13:45 11.2 9.6 90 222 1.4 3.9 1003.2 0.0000 0.8000
13:56 11.4 9.8 90 207 1.1 3.3 1003.3 0.0000 0.8000
14:06 11.6 9.9 89 201 1.4 4.7 1003.4 0.0000 0.8000
14:15 11.7 9.8 88 208 1.4 3.9 1003.6 0.0000 0.8000
14:25 11.8 9.9 88 177 1.1 3.3 1003.7 0.0000 0.8000
14:36 11.9 9.8 87 210 1.1 3.3 1003.8 0.0000 0.8000
14:46 12 9.7 86 192 0.8 2.5 1004 0.0000 0.8000
14:55 11.9 9.6 86 191 1.1 2.8 1004.4 0.0000 0.8000
15:06 11.9 9.5 85 202 1.1 2.8 1004.6 0.0000 0.8000
15:16 11.8 9.4 85 215 0.8 3.3 1004.5 0.0000 0.8000
15:26 11.7 9.3 85 210 1.4 4.4 1004.9 0.0000 0.8000
15:35 11.6 9.2 85 193 1.1 4.4 1004.8 0.0000 0.8000
15:46 11.4 9 85 216 1.4 4.7 1005 0.0000 0.8000
15:56 11.4 9 85 213 1.7 5 1005.3 0.0000 0.8000
16:06 11.3 8.9 85 212 1.7 4.4 1005.4 0.0000 0.8000
16:16 11.3 9 86 206 1.7 3.9 1005.3 0.0000 0.8000
16:26 11.1 8.8 86 199 1.1 3.9 1005.5 0.0000 0.8000
16:36 11 8.8 86 222 1.4 5 1005.4 0.0000 0.8000
16:46 11 8.8 86 211 1.9 4.7 1005.5 0.0000 0.8000
16:56 11 8.8 86 226 2.2 5 1005.8 0.0000 0.8000
16:59 11 8.8 86 219 1.9 5.3 1005.8 0.0000 0.8000
17:09 11 8.9 87 193 1.4 4.7 1005.9 0.0000 0.8000
17:20 11 8.8 86 208 1.4 6.9 1006.1 0.0000 0.8000
17:30 11 8.9 87 203 1.4 3.6 1006.2 0.0000 0.8000
17:39 11 8.9 87 217 1.9 5.6 1006.2 0.0000 0.8000
17:50 11 8.9 87 201 1.4 4.4 1006.3 0.0000 0.8000
18:04 11 8.9 87 221 1.7 7.2 1006.8 0.0000 0.8000
18:14 11 8.9 87 214 1.9 5.8 1007.1 0.0000 0.8000
18:25 11.1 9 87 215 1.9 5 1007.4 0.0000 0.8000
18:34 11.1 9 87 201 1.4 3.9 1007.7 0.0000 0.8000
18:44 11.1 9 87 197 1.1 3.1 1007.8 0.0000 0.8000
18:55 11.1 9 87 225 2.2 5.8 1007.9 0.0000 0.8000
19:05 11.3 9.2 87 212 1.7 4.7 1007.6 0.0000 0.8000
19:15 11.3 9.2 87 209 1.7 4.4 1008.1 0.0000 0.8000
19:24 11.3 9.2 87 206 1.4 3.6 1008.2 0.0000 0.8000
19:37 11.4 9.3 87 215 1.9 8.9 1008.4 0.0000 0.8000
19:47 11.4 9.3 87 212 1.9 4.4 1008.5 0.0000 0.8000
19:57 11.5 9.4 87 219 1.7 5 1008.6 0.0000 0.8000
20:06 11.4 9.3 87 208 1.4 4.4 1008.6 0.0000 0.8000
20:17 11.3 9.2 87 208 1.1 3.6 1008.7 0.0000 0.8000
20:27 11.4 9.3 87 187 1.4 5.6 1008.8 0.0000 0.8000
20:37 11.3 9.2 87 203 1.7 3.6 1009.1 0.0000 0.8000
20:47 11.4 9.3 87 208 1.4 3.9 1009.1 0.0000 0.8000
20:57 11.3 9.4 88 206 1.4 4.2 1009.3 0.0000 0.8000
21:07 11.3 9.4 88 214 1.4 3.6 1009.5 0.0000 0.8000
21:17 11.4 9.5 88 225 1.7 4.4 1009.6 0.0000 0.8000
21:28 11.4 9.5 88 204 1.1 3.3 1009.9 0.0000 0.8000
21:37 11.4 9.5 88 172 0.8 2.5 1010 0.0000 0.8000

DAY STATISTIC

2019-12-14
TEMPERATURE
AVERAGE
7.3
HIGH
12.0
14:46
LOW
0.9
08:34
PRESSURE
AVERAGE
1001.8
HIGH
1010.0
21:37
LOW
991.5
00:07
DEWPOINT
AVERAGE
6.4
HIGH
9.9
14:06
LOW
0.9
08:34
HUMIDITY
AVERAGE
95
HIGH
100
00:07
LOW
85
15:06
WIND SPEED
AVERAGE
1.0
HIGH
2.5
01:18
WIND GUST
AVERAGE
3.0
HIGH
8.9
19:37
WIND DIRECTION
PREVAILING
SW
43.4%
N
8.5
NE
0.0
E
1.6
SE
7.8
S
25.6
SW
43.4
W
7.8
NW
5.4
PRECIPITATION
RAIN HOUR
0.4
RAIN DAY
0.8
TEMPERATURE (°C)
LOW
0.9
HIGH
12.0
AVERAGE
7.3
PRESSURE (hpa)
LOW
991.5
HIGH
1010.0
AVERAGE
1001.8
DEVICE